sensor_id;sensor_type;location;lat;lon;timestamp;P1;durP1;ratioP1;P2;durP2;ratioP2
75054;SDS011;63636;44.746;10.488;2023-05-07T00:01:06;9.50;;;7.50;;
75054;SDS011;63636;44.746;10.488;2023-05-07T00:03:31;11.85;;;7.53;;
75054;SDS011;63636;44.746;10.488;2023-05-07T00:05:57;9.40;;;7.88;;
75054;SDS011;63636;44.746;10.488;2023-05-07T00:08:23;10.73;;;7.38;;
75054;SDS011;63636;44.746;10.488;2023-05-07T00:10:49;9.43;;;7.55;;
75054;SDS011;63636;44.746;10.488;2023-05-07T00:13:14;11.15;;;6.65;;
75054;SDS011;63636;44.746;10.488;2023-05-07T00:15:40;12.77;;;7.03;;
75054;SDS011;63636;44.746;10.488;2023-05-07T00:18:05;9.27;;;7.13;;
75054;SDS011;63636;44.746;10.488;2023-05-07T00:20:31;10.25;;;7.25;;
75054;SDS011;63636;44.746;10.488;2023-05-07T00:22:57;9.45;;;6.50;;
75054;SDS011;63636;44.746;10.488;2023-05-07T00:25:22;10.13;;;6.75;;
75054;SDS011;63636;44.746;10.488;2023-05-07T00:27:47;9.95;;;6.60;;
75054;SDS011;63636;44.746;10.488;2023-05-07T00:30:13;8.68;;;6.50;;
75054;SDS011;63636;44.746;10.488;2023-05-07T00:32:39;9.40;;;6.85;;
75054;SDS011;63636;44.746;10.488;2023-05-07T00:35:04;9.77;;;6.72;;
75054;SDS011;63636;44.746;10.488;2023-05-07T00:37:30;10.57;;;6.47;;
75054;SDS011;63636;44.746;10.488;2023-05-07T00:39:56;10.77;;;6.55;;
75054;SDS011;63636;44.746;10.488;2023-05-07T00:42:22;10.43;;;6.57;;
75054;SDS011;63636;44.746;10.488;2023-05-07T00:44:47;8.77;;;6.25;;
75054;SDS011;63636;44.746;10.488;2023-05-07T00:50:13;9.43;;;6.40;;
75054;SDS011;63636;44.746;10.488;2023-05-07T00:52:39;8.55;;;6.25;;
75054;SDS011;63636;44.746;10.488;2023-05-07T00:55:05;9.27;;;7.00;;
75054;SDS011;63636;44.746;10.488;2023-05-07T00:57:37;8.85;;;6.65;;
75054;SDS011;63636;44.746;10.488;2023-05-07T01:00:04;8.30;;;6.30;;
75054;SDS011;63636;44.746;10.488;2023-05-07T01:02:30;9.10;;;6.65;;
75054;SDS011;63636;44.746;10.488;2023-05-07T01:04:56;9.05;;;6.25;;
75054;SDS011;63636;44.746;10.488;2023-05-07T01:07:22;8.90;;;6.53;;
75054;SDS011;63636;44.746;10.488;2023-05-07T01:09:48;9.32;;;6.70;;
75054;SDS011;63636;44.746;10.488;2023-05-07T01:12:14;9.77;;;6.93;;
75054;SDS011;63636;44.746;10.488;2023-05-07T01:14:40;9.65;;;6.55;;
75054;SDS011;63636;44.746;10.488;2023-05-07T01:17:05;9.40;;;6.57;;
75054;SDS011;63636;44.746;10.488;2023-05-07T01:19:31;9.05;;;6.72;;
75054;SDS011;63636;44.746;10.488;2023-05-07T01:22:04;9.13;;;6.85;;
75054;SDS011;63636;44.746;10.488;2023-05-07T01:24:40;8.60;;;6.47;;
75054;SDS011;63636;44.746;10.488;2023-05-07T01:27:07;8.85;;;6.70;;
75054;SDS011;63636;44.746;10.488;2023-05-07T01:29:34;8.02;;;6.63;;
75054;SDS011;63636;44.746;10.488;2023-05-07T01:32:00;9.52;;;6.68;;
75054;SDS011;63636;44.746;10.488;2023-05-07T01:34:27;8.18;;;6.75;;
75054;SDS011;63636;44.746;10.488;2023-05-07T01:36:54;9.85;;;7.20;;
75054;SDS011;63636;44.746;10.488;2023-05-07T01:39:24;9.48;;;7.07;;
75054;SDS011;63636;44.746;10.488;2023-05-07T01:41:51;11.20;;;7.95;;
75054;SDS011;63636;44.746;10.488;2023-05-07T01:44:16;10.52;;;8.57;;
75054;SDS011;63636;44.746;10.488;2023-05-07T01:46:43;12.13;;;8.73;;
75054;SDS011;63636;44.746;10.488;2023-05-07T01:49:09;12.98;;;9.60;;
75054;SDS011;63636;44.746;10.488;2023-05-07T01:51:35;13.55;;;11.10;;
75054;SDS011;63636;44.746;10.488;2023-05-07T01:54:00;11.98;;;10.32;;
75054;SDS011;63636;44.746;10.488;2023-05-07T01:56:26;12.90;;;10.05;;
75054;SDS011;63636;44.746;10.488;2023-05-07T01:58:52;17.35;;;12.23;;
75054;SDS011;63636;44.746;10.488;2023-05-07T02:01:17;13.85;;;11.60;;
75054;SDS011;63636;44.746;10.488;2023-05-07T02:03:43;17.83;;;12.13;;
75054;SDS011;63636;44.746;10.488;2023-05-07T02:06:17;15.20;;;12.65;;
75054;SDS011;63636;44.746;10.488;2023-05-07T02:08:44;16.83;;;12.70;;
75054;SDS011;63636;44.746;10.488;2023-05-07T02:11:11;17.30;;;12.88;;
75054;SDS011;63636;44.746;10.488;2023-05-07T02:13:37;15.32;;;12.82;;
75054;SDS011;63636;44.746;10.488;2023-05-07T02:16:03;18.98;;;13.60;;
75054;SDS011;63636;44.746;10.488;2023-05-07T02:18:29;16.60;;;13.50;;
75054;SDS011;63636;44.746;10.488;2023-05-07T02:20:54;15.23;;;12.27;;
75054;SDS011;63636;44.746;10.488;2023-05-07T02:23:20;14.40;;;11.88;;
75054;SDS011;63636;44.746;10.488;2023-05-07T02:25:46;16.55;;;12.77;;
75054;SDS011;63636;44.746;10.488;2023-05-07T02:28:12;15.77;;;11.60;;
75054;SDS011;63636;44.746;10.488;2023-05-07T02:30:44;14.48;;;11.98;;
75054;SDS011;63636;44.746;10.488;2023-05-07T02:33:10;14.80;;;10.60;;
75054;SDS011;63636;44.746;10.488;2023-05-07T02:35:38;14.00;;;10.35;;
75054;SDS011;63636;44.746;10.488;2023-05-07T02:38:03;12.98;;;10.18;;
75054;SDS011;63636;44.746;10.488;2023-05-07T02:40:30;15.52;;;10.93;;
75054;SDS011;63636;44.746;10.488;2023-05-07T02:42:59;14.10;;;10.70;;
75054;SDS011;63636;44.746;10.488;2023-05-07T02:45:24;14.02;;;10.55;;
75054;SDS011;63636;44.746;10.488;2023-05-07T02:47:52;13.90;;;10.65;;
75054;SDS011;63636;44.746;10.488;2023-05-07T02:50:18;13.93;;;10.88;;
75054;SDS011;63636;44.746;10.488;2023-05-07T02:52:44;12.93;;;10.48;;
75054;SDS011;63636;44.746;10.488;2023-05-07T02:55:09;13.20;;;10.20;;
75054;SDS011;63636;44.746;10.488;2023-05-07T02:57:36;14.25;;;10.65;;
75054;SDS011;63636;44.746;10.488;2023-05-07T03:00:09;14.20;;;10.77;;
75054;SDS011;63636;44.746;10.488;2023-05-07T03:02:36;13.68;;;10.90;;
75054;SDS011;63636;44.746;10.488;2023-05-07T03:05:01;14.63;;;11.38;;
75054;SDS011;63636;44.746;10.488;2023-05-07T03:07:27;14.82;;;10.85;;
75054;SDS011;63636;44.746;10.488;2023-05-07T03:09:52;15.90;;;11.50;;
75054;SDS011;63636;44.746;10.488;2023-05-07T03:12:19;14.57;;;10.48;;
75054;SDS011;63636;44.746;10.488;2023-05-07T03:14:44;13.13;;;10.57;;
75054;SDS011;63636;44.746;10.488;2023-05-07T03:17:10;14.95;;;10.98;;
75054;SDS011;63636;44.746;10.488;2023-05-07T03:19:36;13.52;;;10.68;;
75054;SDS011;63636;44.746;10.488;2023-05-07T03:22:02;13.68;;;10.60;;
75054;SDS011;63636;44.746;10.488;2023-05-07T03:24:27;13.40;;;10.25;;
75054;SDS011;63636;44.746;10.488;2023-05-07T03:26:53;14.30;;;9.90;;
75054;SDS011;63636;44.746;10.488;2023-05-07T03:29:18;13.40;;;10.20;;
75054;SDS011;63636;44.746;10.488;2023-05-07T03:31:45;14.15;;;10.52;;
75054;SDS011;63636;44.746;10.488;2023-05-07T03:34:10;13.57;;;10.27;;
75054;SDS011;63636;44.746;10.488;2023-05-07T03:36:36;15.93;;;11.35;;
75054;SDS011;63636;44.746;10.488;2023-05-07T03:39:03;14.15;;;11.07;;
75054;SDS011;63636;44.746;10.488;2023-05-07T03:44:01;14.25;;;11.43;;
75054;SDS011;63636;44.746;10.488;2023-05-07T03:46:26;14.45;;;10.77;;
75054;SDS011;63636;44.746;10.488;2023-05-07T03:48:53;17.17;;;11.20;;
75054;SDS011;63636;44.746;10.488;2023-05-07T03:51:20;13.43;;;10.15;;
75054;SDS011;63636;44.746;10.488;2023-05-07T03:53:45;14.70;;;11.18;;
75054;SDS011;63636;44.746;10.488;2023-05-07T03:56:11;16.13;;;11.50;;
75054;SDS011;63636;44.746;10.488;2023-05-07T03:58:39;15.30;;;11.18;;
75054;SDS011;63636;44.746;10.488;2023-05-07T04:01:07;14.85;;;10.05;;
75054;SDS011;63636;44.746;10.488;2023-05-07T04:03:33;14.27;;;10.35;;
75054;SDS011;63636;44.746;10.488;2023-05-07T04:05:59;15.18;;;10.63;;
75054;SDS011;63636;44.746;10.488;2023-05-07T04:08:25;14.90;;;11.27;;
75054;SDS011;63636;44.746;10.488;2023-05-07T04:10:56;15.43;;;10.90;;
75054;SDS011;63636;44.746;10.488;2023-05-07T04:13:24;14.27;;;11.10;;
75054;SDS011;63636;44.746;10.488;2023-05-07T04:15:51;13.75;;;10.57;;
75054;SDS011;63636;44.746;10.488;2023-05-07T04:18:18;14.77;;;11.13;;
75054;SDS011;63636;44.746;10.488;2023-05-07T04:20:46;14.90;;;11.48;;
75054;SDS011;63636;44.746;10.488;2023-05-07T04:23:13;14.93;;;11.35;;
75054;SDS011;63636;44.746;10.488;2023-05-07T04:25:40;16.95;;;11.85;;
75054;SDS011;63636;44.746;10.488;2023-05-07T04:28:44;15.00;;;11.43;;
75054;SDS011;63636;44.746;10.488;2023-05-07T04:31:10;15.35;;;11.05;;
75054;SDS011;63636;44.746;10.488;2023-05-07T04:33:37;14.43;;;11.57;;
75054;SDS011;63636;44.746;10.488;2023-05-07T04:36:04;14.20;;;11.43;;
75054;SDS011;63636;44.746;10.488;2023-05-07T04:38:34;15.00;;;11.02;;
75054;SDS011;63636;44.746;10.488;2023-05-07T04:41:05;14.38;;;11.20;;
75054;SDS011;63636;44.746;10.488;2023-05-07T04:43:33;14.20;;;10.95;;
75054;SDS011;63636;44.746;10.488;2023-05-07T04:45:59;13.25;;;10.32;;
75054;SDS011;63636;44.746;10.488;2023-05-07T04:48:26;13.52;;;10.25;;
75054;SDS011;63636;44.746;10.488;2023-05-07T04:50:53;14.77;;;10.32;;
75054;SDS011;63636;44.746;10.488;2023-05-07T04:53:19;13.18;;;10.07;;
75054;SDS011;63636;44.746;10.488;2023-05-07T04:55:46;12.27;;;9.60;;
75054;SDS011;63636;44.746;10.488;2023-05-07T04:58:12;12.00;;;9.13;;
75054;SDS011;63636;44.746;10.488;2023-05-07T05:00:42;11.05;;;8.40;;
75054;SDS011;63636;44.746;10.488;2023-05-07T05:03:09;11.23;;;8.40;;
75054;SDS011;63636;44.746;10.488;2023-05-07T05:05:37;10.35;;;8.23;;
75054;SDS011;63636;44.746;10.488;2023-05-07T05:08:02;11.00;;;7.97;;
75054;SDS011;63636;44.746;10.488;2023-05-07T05:10:28;10.82;;;7.25;;
75054;SDS011;63636;44.746;10.488;2023-05-07T05:12:54;11.50;;;7.97;;
75054;SDS011;63636;44.746;10.488;2023-05-07T05:15:21;11.88;;;7.70;;
75054;SDS011;63636;44.746;10.488;2023-05-07T05:17:47;10.75;;;7.70;;
75054;SDS011;63636;44.746;10.488;2023-05-07T05:20:14;10.38;;;8.23;;
75054;SDS011;63636;44.746;10.488;2023-05-07T05:22:41;9.60;;;7.25;;
75054;SDS011;63636;44.746;10.488;2023-05-07T05:25:07;9.95;;;6.70;;
75054;SDS011;63636;44.746;10.488;2023-05-07T05:27:33;8.80;;;6.47;;
75054;SDS011;63636;44.746;10.488;2023-05-07T05:29:58;9.80;;;6.82;;
75054;SDS011;63636;44.746;10.488;2023-05-07T05:32:24;9.52;;;6.65;;
75054;SDS011;63636;44.746;10.488;2023-05-07T05:34:53;9.85;;;6.40;;
75054;SDS011;63636;44.746;10.488;2023-05-07T05:37:19;9.32;;;5.85;;
75054;SDS011;63636;44.746;10.488;2023-05-07T05:39:45;7.85;;;5.97;;
75054;SDS011;63636;44.746;10.488;2023-05-07T05:42:11;8.75;;;6.13;;
75054;SDS011;63636;44.746;10.488;2023-05-07T05:44:36;8.90;;;6.05;;
75054;SDS011;63636;44.746;10.488;2023-05-07T05:47:02;8.02;;;5.90;;
75054;SDS011;63636;44.746;10.488;2023-05-07T05:49:29;8.48;;;5.97;;
75054;SDS011;63636;44.746;10.488;2023-05-07T05:51:54;7.72;;;5.60;;
75054;SDS011;63636;44.746;10.488;2023-05-07T05:54:23;7.93;;;5.70;;
75054;SDS011;63636;44.746;10.488;2023-05-07T05:56:49;9.48;;;5.60;;
75054;SDS011;63636;44.746;10.488;2023-05-07T05:59:15;8.13;;;5.43;;
75054;SDS011;63636;44.746;10.488;2023-05-07T06:01:41;7.95;;;5.18;;
75054;SDS011;63636;44.746;10.488;2023-05-07T06:04:06;8.45;;;5.35;;
75054;SDS011;63636;44.746;10.488;2023-05-07T06:06:33;7.45;;;4.72;;
75054;SDS011;63636;44.746;10.488;2023-05-07T06:09:00;7.78;;;5.25;;
75054;SDS011;63636;44.746;10.488;2023-05-07T06:11:33;8.30;;;5.45;;
75054;SDS011;63636;44.746;10.488;2023-05-07T06:13:59;11.52;;;5.25;;
75054;SDS011;63636;44.746;10.488;2023-05-07T06:16:26;8.18;;;5.30;;
75054;SDS011;63636;44.746;10.488;2023-05-07T06:18:52;7.30;;;5.35;;
75054;SDS011;63636;44.746;10.488;2023-05-07T06:21:17;9.43;;;5.45;;
75054;SDS011;63636;44.746;10.488;2023-05-07T06:23:43;9.45;;;5.53;;
75054;SDS011;63636;44.746;10.488;2023-05-07T06:26:09;7.82;;;5.72;;
75054;SDS011;63636;44.746;10.488;2023-05-07T06:28:39;8.13;;;5.78;;
75054;SDS011;63636;44.746;10.488;2023-05-07T06:31:13;8.35;;;5.88;;
75054;SDS011;63636;44.746;10.488;2023-05-07T06:33:39;8.88;;;6.05;;
75054;SDS011;63636;44.746;10.488;2023-05-07T06:36:06;10.23;;;6.82;;
75054;SDS011;63636;44.746;10.488;2023-05-07T06:38:32;9.98;;;7.25;;
75054;SDS011;63636;44.746;10.488;2023-05-07T06:40:57;11.00;;;7.80;;
75054;SDS011;63636;44.746;10.488;2023-05-07T06:43:23;11.70;;;8.98;;
75054;SDS011;63636;44.746;10.488;2023-05-07T06:46:11;11.68;;;8.48;;
75054;SDS011;63636;44.746;10.488;2023-05-07T06:48:37;11.63;;;8.93;;
75054;SDS011;63636;44.746;10.488;2023-05-07T06:51:04;11.85;;;8.82;;
75054;SDS011;63636;44.746;10.488;2023-05-07T06:53:30;14.23;;;10.57;;
75054;SDS011;63636;44.746;10.488;2023-05-07T06:55:58;14.55;;;11.00;;
75054;SDS011;63636;44.746;10.488;2023-05-07T06:58:24;16.30;;;11.20;;
75054;SDS011;63636;44.746;10.488;2023-05-07T07:00:50;15.20;;;11.45;;
75054;SDS011;63636;44.746;10.488;2023-05-07T07:03:16;14.90;;;11.18;;
75054;SDS011;63636;44.746;10.488;2023-05-07T07:05:42;14.63;;;11.63;;
75054;SDS011;63636;44.746;10.488;2023-05-07T07:08:08;16.83;;;11.85;;
75054;SDS011;63636;44.746;10.488;2023-05-07T07:10:33;17.20;;;12.45;;
75054;SDS011;63636;44.746;10.488;2023-05-07T07:12:59;15.75;;;12.25;;
75054;SDS011;63636;44.746;10.488;2023-05-07T07:15:25;15.95;;;12.05;;
75054;SDS011;63636;44.746;10.488;2023-05-07T07:17:53;15.10;;;12.23;;
75054;SDS011;63636;44.746;10.488;2023-05-07T07:20:19;15.73;;;12.45;;
75054;SDS011;63636;44.746;10.488;2023-05-07T07:22:45;16.42;;;12.88;;
75054;SDS011;63636;44.746;10.488;2023-05-07T07:25:11;15.07;;;12.15;;
75054;SDS011;63636;44.746;10.488;2023-05-07T07:27:38;17.05;;;12.80;;
75054;SDS011;63636;44.746;10.488;2023-05-07T07:30:06;19.27;;;13.15;;
75054;SDS011;63636;44.746;10.488;2023-05-07T07:32:34;16.48;;;13.07;;
75054;SDS011;63636;44.746;10.488;2023-05-07T07:35:00;18.40;;;13.40;;
75054;SDS011;63636;44.746;10.488;2023-05-07T07:37:27;18.27;;;12.35;;
75054;SDS011;63636;44.746;10.488;2023-05-07T07:39:52;16.73;;;12.90;;
75054;SDS011;63636;44.746;10.488;2023-05-07T07:42:19;17.33;;;12.55;;
75054;SDS011;63636;44.746;10.488;2023-05-07T07:44:45;17.40;;;12.80;;
75054;SDS011;63636;44.746;10.488;2023-05-07T07:47:12;15.48;;;12.35;;
75054;SDS011;63636;44.746;10.488;2023-05-07T07:49:39;16.67;;;12.40;;
75054;SDS011;63636;44.746;10.488;2023-05-07T07:52:07;16.13;;;11.40;;
75054;SDS011;63636;44.746;10.488;2023-05-07T07:54:35;15.98;;;10.57;;
75054;SDS011;63636;44.746;10.488;2023-05-07T07:57:00;13.85;;;10.15;;
75054;SDS011;63636;44.746;10.488;2023-05-07T07:59:29;13.18;;;10.38;;
75054;SDS011;63636;44.746;10.488;2023-05-07T08:01:55;14.32;;;9.55;;
75054;SDS011;63636;44.746;10.488;2023-05-07T08:04:23;13.57;;;9.70;;
75054;SDS011;63636;44.746;10.488;2023-05-07T08:06:49;12.70;;;9.82;;
75054;SDS011;63636;44.746;10.488;2023-05-07T08:09:15;11.85;;;8.80;;
75054;SDS011;63636;44.746;10.488;2023-05-07T08:11:40;11.40;;;8.70;;
75054;SDS011;63636;44.746;10.488;2023-05-07T08:14:06;10.85;;;8.18;;
75054;SDS011;63636;44.746;10.488;2023-05-07T08:16:32;12.85;;;8.25;;
75054;SDS011;63636;44.746;10.488;2023-05-07T08:19:00;11.15;;;7.80;;
75054;SDS011;63636;44.746;10.488;2023-05-07T08:21:25;10.77;;;7.28;;
75054;SDS011;63636;44.746;10.488;2023-05-07T08:23:51;10.05;;;7.57;;
75054;SDS011;63636;44.746;10.488;2023-05-07T08:26:17;10.70;;;7.13;;
75054;SDS011;63636;44.746;10.488;2023-05-07T08:28:43;10.35;;;6.93;;
75054;SDS011;63636;44.746;10.488;2023-05-07T08:31:09;10.43;;;6.90;;
75054;SDS011;63636;44.746;10.488;2023-05-07T08:33:38;10.85;;;7.45;;
75054;SDS011;63636;44.746;10.488;2023-05-07T08:36:04;12.60;;;8.23;;
75054;SDS011;63636;44.746;10.488;2023-05-07T08:38:30;9.75;;;7.20;;
75054;SDS011;63636;44.746;10.488;2023-05-07T08:40:56;9.52;;;7.20;;
75054;SDS011;63636;44.746;10.488;2023-05-07T08:43:21;9.50;;;7.05;;
75054;SDS011;63636;44.746;10.488;2023-05-07T08:45:52;9.80;;;7.05;;
75054;SDS011;63636;44.746;10.488;2023-05-07T08:48:21;10.90;;;7.68;;
75054;SDS011;63636;44.746;10.488;2023-05-07T08:50:54;9.73;;;7.03;;
75054;SDS011;63636;44.746;10.488;2023-05-07T08:53:20;9.68;;;7.13;;
75054;SDS011;63636;44.746;10.488;2023-05-07T08:55:46;10.25;;;7.28;;
75054;SDS011;63636;44.746;10.488;2023-05-07T08:58:13;10.15;;;6.72;;
75054;SDS011;63636;44.746;10.488;2023-05-07T09:00:39;10.25;;;6.47;;
75054;SDS011;63636;44.746;10.488;2023-05-07T09:03:05;9.88;;;7.00;;
75054;SDS011;63636;44.746;10.488;2023-05-07T09:05:31;8.57;;;6.32;;
75054;SDS011;63636;44.746;10.488;2023-05-07T09:08:04;10.25;;;6.68;;
75054;SDS011;63636;44.746;10.488;2023-05-07T09:10:31;8.45;;;5.78;;
75054;SDS011;63636;44.746;10.488;2023-05-07T09:12:57;10.02;;;6.75;;
75054;SDS011;63636;44.746;10.488;2023-05-07T09:15:23;8.20;;;6.25;;
75054;SDS011;63636;44.746;10.488;2023-05-07T09:17:49;7.90;;;5.93;;
75054;SDS011;63636;44.746;10.488;2023-05-07T09:20:15;9.98;;;6.32;;
75054;SDS011;63636;44.746;10.488;2023-05-07T09:22:41;7.72;;;5.60;;
75054;SDS011;63636;44.746;10.488;2023-05-07T09:25:11;10.48;;;5.57;;
75054;SDS011;63636;44.746;10.488;2023-05-07T09:27:38;7.78;;;4.78;;
75054;SDS011;63636;44.746;10.488;2023-05-07T09:30:06;8.38;;;5.97;;
75054;SDS011;63636;44.746;10.488;2023-05-07T09:32:36;8.07;;;6.00;;
75054;SDS011;63636;44.746;10.488;2023-05-07T09:35:16;7.68;;;5.93;;
75054;SDS011;63636;44.746;10.488;2023-05-07T09:37:52;8.77;;;5.47;;
75054;SDS011;63636;44.746;10.488;2023-05-07T09:40:20;8.60;;;4.93;;
75054;SDS011;63636;44.746;10.488;2023-05-07T09:42:45;9.38;;;5.78;;
75054;SDS011;63636;44.746;10.488;2023-05-07T09:45:12;6.72;;;4.68;;
75054;SDS011;63636;44.746;10.488;2023-05-07T09:47:41;7.53;;;5.05;;
75054;SDS011;63636;44.746;10.488;2023-05-07T09:50:10;6.55;;;4.55;;
75054;SDS011;63636;44.746;10.488;2023-05-07T09:52:39;7.32;;;4.72;;
75054;SDS011;63636;44.746;10.488;2023-05-07T09:55:07;7.25;;;4.85;;
75054;SDS011;63636;44.746;10.488;2023-05-07T09:57:34;7.85;;;5.10;;
75054;SDS011;63636;44.746;10.488;2023-05-07T10:00:03;7.03;;;4.25;;
75054;SDS011;63636;44.746;10.488;2023-05-07T10:02:35;6.68;;;4.18;;
75054;SDS011;63636;44.746;10.488;2023-05-07T10:05:01;4.80;;;3.65;;
75054;SDS011;63636;44.746;10.488;2023-05-07T10:07:30;5.47;;;3.83;;
75054;SDS011;63636;44.746;10.488;2023-05-07T10:10:01;6.18;;;3.65;;
75054;SDS011;63636;44.746;10.488;2023-05-07T10:12:33;5.70;;;4.13;;
75054;SDS011;63636;44.746;10.488;2023-05-07T10:15:06;5.88;;;3.33;;
75054;SDS011;63636;44.746;10.488;2023-05-07T10:17:34;5.88;;;4.18;;
75054;SDS011;63636;44.746;10.488;2023-05-07T10:20:01;5.50;;;3.80;;
75054;SDS011;63636;44.746;10.488;2023-05-07T10:22:27;5.32;;;3.97;;
75054;SDS011;63636;44.746;10.488;2023-05-07T10:24:54;5.30;;;3.60;;
75054;SDS011;63636;44.746;10.488;2023-05-07T10:27:21;8.27;;;6.15;;
75054;SDS011;63636;44.746;10.488;2023-05-07T10:32:40;7.60;;;5.82;;
75054;SDS011;63636;44.746;10.488;2023-05-07T10:35:16;11.27;;;7.45;;
75054;SDS011;63636;44.746;10.488;2023-05-07T10:37:43;8.73;;;6.90;;
75054;SDS011;63636;44.746;10.488;2023-05-07T10:40:10;10.20;;;7.30;;
75054;SDS011;63636;44.746;10.488;2023-05-07T10:42:36;11.60;;;7.65;;
75054;SDS011;63636;44.746;10.488;2023-05-07T10:45:14;9.57;;;7.90;;
75054;SDS011;63636;44.746;10.488;2023-05-07T10:50:29;7.80;;;5.75;;
75054;SDS011;63636;44.746;10.488;2023-05-07T10:58:50;10.30;;;7.18;;
75054;SDS011;63636;44.746;10.488;2023-05-07T11:01:48;7.80;;;5.93;;
75054;SDS011;63636;44.746;10.488;2023-05-07T11:04:13;10.43;;;7.03;;
75054;SDS011;63636;44.746;10.488;2023-05-07T11:07:01;9.15;;;5.10;;
75054;SDS011;63636;44.746;10.488;2023-05-07T11:12:13;6.50;;;4.45;;
75054;SDS011;63636;44.746;10.488;2023-05-07T11:14:46;8.15;;;4.70;;
75054;SDS011;63636;44.746;10.488;2023-05-07T11:17:32;7.22;;;4.65;;
75054;SDS011;63636;44.746;10.488;2023-05-07T11:20:03;8.20;;;4.70;;
75054;SDS011;63636;44.746;10.488;2023-05-07T11:22:40;8.30;;;5.28;;
75054;SDS011;63636;44.746;10.488;2023-05-07T11:25:21;6.95;;;4.60;;
75054;SDS011;63636;44.746;10.488;2023-05-07T11:27:54;8.60;;;5.13;;
75054;SDS011;63636;44.746;10.488;2023-05-07T11:30:20;5.68;;;4.50;;
75054;SDS011;63636;44.746;10.488;2023-05-07T11:32:47;7.00;;;4.50;;
75054;SDS011;63636;44.746;10.488;2023-05-07T11:35:15;8.48;;;6.30;;
75054;SDS011;63636;44.746;10.488;2023-05-07T11:37:41;7.45;;;4.47;;
75054;SDS011;63636;44.746;10.488;2023-05-07T11:40:08;5.28;;;3.75;;
75054;SDS011;63636;44.746;10.488;2023-05-07T11:42:36;6.00;;;4.40;;
75054;SDS011;63636;44.746;10.488;2023-05-07T11:45:05;7.75;;;4.60;;
75054;SDS011;63636;44.746;10.488;2023-05-07T11:47:32;7.63;;;4.95;;
75054;SDS011;63636;44.746;10.488;2023-05-07T11:50:02;21.65;;;17.27;;
75054;SDS011;63636;44.746;10.488;2023-05-07T11:52:28;9.18;;;6.88;;
75054;SDS011;63636;44.746;10.488;2023-05-07T11:54:54;6.68;;;4.53;;
75054;SDS011;63636;44.746;10.488;2023-05-07T11:57:20;17.00;;;12.10;;
75054;SDS011;63636;44.746;10.488;2023-05-07T11:59:46;8.55;;;5.47;;
75054;SDS011;63636;44.746;10.488;2023-05-07T12:02:15;5.95;;;4.10;;
75054;SDS011;63636;44.746;10.488;2023-05-07T12:04:40;5.82;;;4.00;;
75054;SDS011;63636;44.746;10.488;2023-05-07T12:07:13;6.18;;;3.90;;
75054;SDS011;63636;44.746;10.488;2023-05-07T12:09:39;5.40;;;3.40;;
75054;SDS011;63636;44.746;10.488;2023-05-07T12:12:05;6.45;;;3.63;;
75054;SDS011;63636;44.746;10.488;2023-05-07T12:14:31;4.55;;;3.05;;
75054;SDS011;63636;44.746;10.488;2023-05-07T12:17:01;4.53;;;3.20;;
75054;SDS011;63636;44.746;10.488;2023-05-07T12:19:30;6.25;;;3.63;;
75054;SDS011;63636;44.746;10.488;2023-05-07T12:21:56;5.78;;;3.42;;
75054;SDS011;63636;44.746;10.488;2023-05-07T12:24:21;5.80;;;4.07;;
75054;SDS011;63636;44.746;10.488;2023-05-07T12:26:47;4.75;;;3.08;;
75054;SDS011;63636;44.746;10.488;2023-05-07T12:29:13;4.82;;;3.45;;
75054;SDS011;63636;44.746;10.488;2023-05-07T12:31:40;6.43;;;3.60;;
75054;SDS011;63636;44.746;10.488;2023-05-07T12:34:05;4.70;;;3.40;;
75054;SDS011;63636;44.746;10.488;2023-05-07T12:36:38;5.55;;;3.30;;
75054;SDS011;63636;44.746;10.488;2023-05-07T12:39:04;4.03;;;3.10;;
75054;SDS011;63636;44.746;10.488;2023-05-07T12:41:30;4.82;;;3.47;;
75054;SDS011;63636;44.746;10.488;2023-05-07T12:43:56;3.55;;;2.88;;
75054;SDS011;63636;44.746;10.488;2023-05-07T12:46:22;6.40;;;3.65;;
75054;SDS011;63636;44.746;10.488;2023-05-07T12:48:48;4.95;;;3.33;;
75054;SDS011;63636;44.746;10.488;2023-05-07T12:51:14;4.55;;;2.90;;
75054;SDS011;63636;44.746;10.488;2023-05-07T12:53:41;5.22;;;3.97;;
75054;SDS011;63636;44.746;10.488;2023-05-07T12:56:10;6.10;;;3.30;;
75054;SDS011;63636;44.746;10.488;2023-05-07T12:58:36;4.10;;;2.75;;
75054;SDS011;63636;44.746;10.488;2023-05-07T13:01:05;4.30;;;2.78;;
75054;SDS011;63636;44.746;10.488;2023-05-07T13:03:32;4.75;;;2.90;;
75054;SDS011;63636;44.746;10.488;2023-05-07T13:05:59;4.63;;;3.00;;
75054;SDS011;63636;44.746;10.488;2023-05-07T13:10:51;4.55;;;3.00;;
75054;SDS011;63636;44.746;10.488;2023-05-07T13:13:16;4.85;;;3.15;;
75054;SDS011;63636;44.746;10.488;2023-05-07T13:15:42;4.88;;;3.20;;
75054;SDS011;63636;44.746;10.488;2023-05-07T13:18:07;8.75;;;6.63;;
75054;SDS011;63636;44.746;10.488;2023-05-07T13:20:33;4.97;;;3.67;;
75054;SDS011;63636;44.746;10.488;2023-05-07T13:22:58;3.47;;;2.55;;
75054;SDS011;63636;44.746;10.488;2023-05-07T13:25:27;5.65;;;4.00;;
75054;SDS011;63636;44.746;10.488;2023-05-07T13:27:52;3.65;;;2.55;;
75054;SDS011;63636;44.746;10.488;2023-05-07T13:30:18;4.00;;;2.47;;
75054;SDS011;63636;44.746;10.488;2023-05-07T13:32:43;5.13;;;3.50;;
75054;SDS011;63636;44.746;10.488;2023-05-07T13:35:10;5.07;;;3.20;;
75054;SDS011;63636;44.746;10.488;2023-05-07T13:37:36;12.13;;;8.13;;
75054;SDS011;63636;44.746;10.488;2023-05-07T13:40:02;10.88;;;7.07;;
75054;SDS011;63636;44.746;10.488;2023-05-07T13:42:27;9.77;;;6.70;;
75054;SDS011;63636;44.746;10.488;2023-05-07T13:44:53;5.32;;;3.20;;
75054;SDS011;63636;44.746;10.488;2023-05-07T13:47:19;7.07;;;4.65;;
75054;SDS011;63636;44.746;10.488;2023-05-07T13:49:44;9.80;;;5.32;;
75054;SDS011;63636;44.746;10.488;2023-05-07T13:52:10;6.60;;;3.65;;
75054;SDS011;63636;44.746;10.488;2023-05-07T13:54:36;4.93;;;3.00;;
75054;SDS011;63636;44.746;10.488;2023-05-07T13:57:02;4.07;;;2.55;;
75054;SDS011;63636;44.746;10.488;2023-05-07T13:59:27;4.18;;;3.10;;
75054;SDS011;63636;44.746;10.488;2023-05-07T14:01:53;5.90;;;4.13;;
75054;SDS011;63636;44.746;10.488;2023-05-07T14:04:20;4.65;;;3.22;;
75054;SDS011;63636;44.746;10.488;2023-05-07T14:06:45;5.28;;;3.75;;
75054;SDS011;63636;44.746;10.488;2023-05-07T14:09:11;5.32;;;3.70;;
75054;SDS011;63636;44.746;10.488;2023-05-07T14:11:38;4.57;;;3.35;;
75054;SDS011;63636;44.746;10.488;2023-05-07T14:14:06;6.60;;;3.55;;
75054;SDS011;63636;44.746;10.488;2023-05-07T14:16:31;5.28;;;3.10;;
75054;SDS011;63636;44.746;10.488;2023-05-07T14:18:57;4.30;;;3.03;;
75054;SDS011;63636;44.746;10.488;2023-05-07T14:21:23;4.38;;;3.20;;
75054;SDS011;63636;44.746;10.488;2023-05-07T14:23:48;5.15;;;3.15;;
75054;SDS011;63636;44.746;10.488;2023-05-07T14:26:14;5.32;;;3.60;;
75054;SDS011;63636;44.746;10.488;2023-05-07T14:28:39;8.70;;;4.07;;
75054;SDS011;63636;44.746;10.488;2023-05-07T14:31:06;7.57;;;4.85;;
75054;SDS011;63636;44.746;10.488;2023-05-07T14:33:32;7.68;;;4.80;;
75054;SDS011;63636;44.746;10.488;2023-05-07T14:35:57;8.23;;;4.60;;
75054;SDS011;63636;44.746;10.488;2023-05-07T14:38:23;9.98;;;4.90;;
75054;SDS011;63636;44.746;10.488;2023-05-07T14:40:48;8.15;;;3.80;;
75054;SDS011;63636;44.746;10.488;2023-05-07T14:43:14;6.55;;;4.20;;
75054;SDS011;63636;44.746;10.488;2023-05-07T14:45:40;6.30;;;3.90;;